Huff, Kentucky
Current Conditions -  °F | °C
As of 10:53 PM on Friday 28 Nov 2014 (Local Time) from KBWG Reporting Station
Clear Clear  
Wind Chill: 36°   Ceiling: Unl
Heat Index: 43°   Visibility: 10mi
Dew Point: 22°   Wind: 14mph
Humidity: 43%   Direction: 200°SSW
Pressure: 30.08"   Gusts: NA
Location:  37.2379°N, 86.3446°W
Report Text: KBWG 290453Z AUTO 20012KT 10SM CLR 06/M06 A3008 RMK AO2 SLP190 T00611056
Loading
Personal Weather Stations






























Interactive Weather Map New forecast layout! Learn more

10-Day Weather Forecast

Advertisements
Track Severe Weather on mobile